createdAt,value
2022-10-09T00:00:11.833Z,87.32
2022-10-09T00:01:11.799Z,87.11
2022-10-09T00:02:11.826Z,87.21
2022-10-09T00:03:11.704Z,87.42
2022-10-09T00:04:11.724Z,87.83
2022-10-09T00:05:11.831Z,87.83
2022-10-09T00:06:11.742Z,87.83
2022-10-09T00:07:11.704Z,87.83
2022-10-09T00:08:11.668Z,87.73
2022-10-09T00:09:11.664Z,87.63
2022-10-09T00:10:11.664Z,87.63
2022-10-09T00:11:11.626Z,87.63
2022-10-09T00:12:11.625Z,87.73
2022-10-09T00:13:11.596Z,87.63
2022-10-09T00:14:11.640Z,87.52
2022-10-09T00:15:11.606Z,87.52
2022-10-09T00:16:11.585Z,87.52
2022-10-09T00:17:11.636Z,87.21
2022-10-09T00:18:11.563Z,87.01
2022-10-09T00:19:11.555Z,86.90
2022-10-09T00:20:11.547Z,86.90
2022-10-09T00:21:11.539Z,86.80
2022-10-09T00:22:11.513Z,86.80
2022-10-09T00:23:11.596Z,86.90
2022-10-09T00:24:11.489Z,87.15
2022-10-09T00:25:11.489Z,87.15
2022-10-09T00:26:11.496Z,87.26
2022-10-09T00:27:11.461Z,87.35
2022-10-09T00:28:11.491Z,87.35
2022-10-09T00:29:11.430Z,87.46
2022-10-09T00:30:11.432Z,87.56
2022-10-09T00:31:11.466Z,87.56
2022-10-09T00:32:11.408Z,87.66
2022-10-09T00:33:11.422Z,87.66
2022-10-09T00:34:11.401Z,87.66
2022-10-09T00:35:11.413Z,87.77
2022-10-09T00:36:11.408Z,87.87
2022-10-09T00:37:11.354Z,87.87
2022-10-09T00:38:11.339Z,87.81
2022-10-09T00:39:11.343Z,87.92
2022-10-09T00:40:11.332Z,87.92
2022-10-09T00:41:11.323Z,87.92
2022-10-09T00:42:11.294Z,87.92
2022-10-09T00:43:11.287Z,87.92
2022-10-09T00:44:11.283Z,87.71
2022-10-09T00:45:11.279Z,87.60
2022-10-09T00:46:11.310Z,87.40
2022-10-09T00:47:11.235Z,87.50
2022-10-09T00:48:11.233Z,87.40
2022-10-09T00:49:11.215Z,87.29
2022-10-09T00:50:11.216Z,87.19
2022-10-09T00:51:11.216Z,87.19
2022-10-09T00:52:11.199Z,87.19
2022-10-09T00:53:11.187Z,87.08
2022-10-09T00:54:11.194Z,87.08
2022-10-09T00:55:11.318Z,87.08
2022-10-09T00:56:11.180Z,86.98
2022-10-09T00:57:11.140Z,87.08
2022-10-09T00:58:11.178Z,87.19
2022-10-09T00:59:11.119Z,86.98
2022-10-09T01:00:11.107Z,87.08
2022-10-09T01:01:11.171Z,87.40
2022-10-09T01:02:12.127Z,87.74
2022-10-09T01:03:11.090Z,87.65
2022-10-09T01:04:11.062Z,87.85
2022-10-09T01:05:11.110Z,88.41
2022-10-09T01:06:11.071Z,88.51
2022-10-09T01:07:11.124Z,88.26
2022-10-09T01:08:11.077Z,88.06
2022-10-09T01:09:11.027Z,87.85
2022-10-09T01:10:11.042Z,87.74
2022-10-09T01:11:11.026Z,87.54
2022-10-09T01:12:11.004Z,87.23
2022-10-09T01:13:10.971Z,87.23
2022-10-09T01:14:11.037Z,87.23
2022-10-09T01:15:11.011Z,87.13
2022-10-09T01:16:11.025Z,86.92
2022-10-09T01:17:11.010Z,86.82
2022-10-09T01:18:10.916Z,86.71
2022-10-09T01:19:10.911Z,86.71
2022-10-09T01:20:10.894Z,86.71
2022-10-09T01:21:10.981Z,86.71
2022-10-09T01:22:10.873Z,86.71
2022-10-09T01:23:10.891Z,86.71
2022-10-09T01:24:10.868Z,86.82
2022-10-09T01:25:10.852Z,86.61
2022-10-09T01:26:10.889Z,86.71
2022-10-09T01:27:10.853Z,86.61
2022-10-09T01:28:10.886Z,86.71
2022-10-09T01:29:10.859Z,86.86
2022-10-09T01:30:10.957Z,86.76
2022-10-09T01:31:10.901Z,86.76
2022-10-09T01:32:10.807Z,86.86
2022-10-09T01:33:10.797Z,87.07
2022-10-09T01:34:10.745Z,87.07
2022-10-09T01:35:10.822Z,87.07
2022-10-09T01:36:10.794Z,87.17
2022-10-09T01:37:10.716Z,87.07
2022-10-09T01:38:10.724Z,87.17
2022-10-09T01:39:10.847Z,87.27
2022-10-09T01:40:10.764Z,87.17
2022-10-09T01:41:10.793Z,87.17
2022-10-09T01:42:10.657Z,87.07
2022-10-09T01:43:10.724Z,87.07
2022-10-09T01:44:10.689Z,86.96
2022-10-09T01:45:10.798Z,86.96
2022-10-09T01:46:10.774Z,86.86
2022-10-09T01:47:10.665Z,86.65
2022-10-09T01:48:10.590Z,86.44
2022-10-09T01:49:10.590Z,86.24
2022-10-09T01:50:10.669Z,86.24
2022-10-09T01:51:10.572Z,86.24
2022-10-09T01:52:10.562Z,86.44
2022-10-09T01:53:10.673Z,86.76
2022-10-09T01:54:10.533Z,86.86
2022-10-09T01:55:10.547Z,86.96
2022-10-09T01:56:10.515Z,87.07
2022-10-09T01:57:10.516Z,86.86
2022-10-09T01:58:10.495Z,86.65
2022-10-09T01:59:15.521Z,86.44
2022-10-09T02:00:11.476Z,86.44
2022-10-09T02:01:10.650Z,86.38
2022-10-09T02:02:10.670Z,86.59
2022-10-09T02:03:10.530Z,86.69
2022-10-09T02:04:10.418Z,86.79
2022-10-09T02:05:10.416Z,86.90
2022-10-09T02:06:10.394Z,86.90
2022-10-09T02:07:10.420Z,86.79
2022-10-09T02:08:10.378Z,86.79
2022-10-09T02:09:10.365Z,87.00
2022-10-09T02:10:10.421Z,87.10
2022-10-09T02:11:10.336Z,87.10
2022-10-09T02:12:10.369Z,87.10
2022-10-09T02:13:10.389Z,87.41
2022-10-09T02:14:10.305Z,87.73
2022-10-09T02:15:10.326Z,88.14
2022-10-09T02:16:10.381Z,88.14
2022-10-09T02:17:12.254Z,87.62
2022-10-09T02:18:10.282Z,87.10
2022-10-09T02:19:10.251Z,87.21
2022-10-09T02:20:10.298Z,87.41
2022-10-09T02:21:10.255Z,87.52
2022-10-09T02:22:10.224Z,87.73
2022-10-09T02:23:10.236Z,87.83
2022-10-09T02:24:10.220Z,87.73
2022-10-09T02:25:10.194Z,87.52
2022-10-09T02:26:10.282Z,87.31
2022-10-09T02:27:10.282Z,87.31
2022-10-09T02:28:10.358Z,87.21
2022-10-09T02:29:10.151Z,87.21
2022-10-09T02:30:11.112Z,87.31
2022-10-09T02:31:10.283Z,87.10
2022-10-09T02:32:10.130Z,86.90
2022-10-09T02:33:10.142Z,86.90
2022-10-09T02:34:10.091Z,86.79
2022-10-09T02:35:10.098Z,86.79
2022-10-09T02:36:10.103Z,86.69
2022-10-09T02:37:10.076Z,86.59
2022-10-09T02:38:10.083Z,86.52
2022-10-09T02:39:10.048Z,86.52
2022-10-09T02:40:11.032Z,86.52
2022-10-09T02:41:10.029Z,86.83
2022-10-09T02:42:10.046Z,86.83
2022-10-09T02:43:10.024Z,86.83
2022-10-09T02:44:10.004Z,86.83
2022-10-09T02:45:09.996Z,86.83
2022-10-09T02:46:10.046Z,86.83
2022-10-09T02:47:09.989Z,86.73
2022-10-09T02:48:09.955Z,86.83
2022-10-09T02:49:09.940Z,86.94
2022-10-09T02:50:09.946Z,87.04
2022-10-09T02:51:09.924Z,87.15
2022-10-09T02:52:09.919Z,87.04
2022-10-09T02:53:09.901Z,87.04
2022-10-09T02:54:09.905Z,87.15
2022-10-09T02:55:09.882Z,87.15
2022-10-09T02:56:09.865Z,87.15
2022-10-09T02:57:09.871Z,87.04
2022-10-09T02:58:09.844Z,86.98
2022-10-09T02:59:09.849Z,86.98
2022-10-09T03:00:10.760Z,87.08
2022-10-09T03:01:09.804Z,87.18
2022-10-09T03:02:09.873Z,87.18
2022-10-09T03:03:23.245Z,87.29
2022-10-09T03:05:28.521Z,87.49
2022-10-09T03:06:28.502Z,87.49
2022-10-09T03:07:28.497Z,87.39
2022-10-09T03:08:28.471Z,87.29
2022-10-09T03:09:33.393Z,87.39
2022-10-09T03:10:29.492Z,87.39
2022-10-09T03:11:28.458Z,87.29
2022-10-09T03:12:28.451Z,87.18
2022-10-09T03:13:28.428Z,86.98
2022-10-09T03:14:28.413Z,86.77
2022-10-09T03:15:28.413Z,86.77
2022-10-09T03:16:28.431Z,86.77
2022-10-09T03:17:28.382Z,86.88
2022-10-09T03:18:28.369Z,86.77
2022-10-09T03:19:28.364Z,86.88
2022-10-09T03:20:28.377Z,86.88
2022-10-09T03:21:28.354Z,86.98
2022-10-09T03:22:28.323Z,87.02
2022-10-09T03:23:28.320Z,87.02
2022-10-09T03:24:28.310Z,87.02
2022-10-09T03:25:28.296Z,87.12
2022-10-09T03:26:28.286Z,87.02
2022-10-09T03:27:28.287Z,87.12
2022-10-09T03:28:28.298Z,87.12
2022-10-09T03:29:28.251Z,87.23
2022-10-09T03:30:28.243Z,87.33
2022-10-09T03:32:29.346Z,87.12
2022-10-09T03:33:28.229Z,87.12
2022-10-09T03:34:28.208Z,87.23
2022-10-09T03:35:28.198Z,87.23
2022-10-09T03:36:28.193Z,87.33
2022-10-09T03:37:28.176Z,87.33
2022-10-09T03:38:28.159Z,87.33
2022-10-09T03:39:28.149Z,87.33
2022-10-09T03:40:28.131Z,87.33
2022-10-09T03:41:28.143Z,87.33
2022-10-09T03:42:28.145Z,87.43
2022-10-09T03:43:28.121Z,87.43
2022-10-09T03:44:28.089Z,87.43
2022-10-09T03:45:28.081Z,87.54
2022-10-09T03:46:28.123Z,87.64
2022-10-09T03:47:28.079Z,87.54
2022-10-09T03:48:28.051Z,87.33
2022-10-09T03:49:28.038Z,87.23
2022-10-09T03:50:28.032Z,87.02
2022-10-09T03:51:28.022Z,87.02
2022-10-09T03:52:28.033Z,87.23
2022-10-09T03:53:28.006Z,87.33
2022-10-09T03:54:27.982Z,87.33
2022-10-09T03:55:27.972Z,87.54
2022-10-09T03:56:27.953Z,87.85
2022-10-09T03:57:27.973Z,88.20
2022-10-09T03:58:27.974Z,88.40
2022-10-09T03:59:27.946Z,88.61
2022-10-09T04:00:27.924Z,88.61
2022-10-09T04:01:27.983Z,88.61
2022-10-09T04:02:27.973Z,88.51
2022-10-09T04:03:27.896Z,88.40
2022-10-09T04:04:27.896Z,88.30
2022-10-09T04:05:27.876Z,88.30
2022-10-09T04:06:27.856Z,88.09
2022-10-09T04:07:27.872Z,88.20
2022-10-09T04:08:28.802Z,88.30
2022-10-09T04:09:27.829Z,88.30
2022-10-09T04:10:27.809Z,88.20
2022-10-09T04:11:27.798Z,88.09
2022-10-09T04:12:27.807Z,87.88
2022-10-09T04:13:27.807Z,87.68
2022-10-09T04:14:27.809Z,87.57
2022-10-09T04:15:27.814Z,87.57
2022-10-09T04:16:27.784Z,87.37
2022-10-09T04:17:27.740Z,87.37
2022-10-09T04:18:27.743Z,87.27
2022-10-09T04:19:27.726Z,87.16
2022-10-09T04:20:27.734Z,86.96
2022-10-09T04:21:27.729Z,87.06
2022-10-09T04:22:27.690Z,87.16
2022-10-09T04:23:27.710Z,87.27
2022-10-09T04:24:27.680Z,87.27
2022-10-09T04:25:27.667Z,87.16
2022-10-09T04:26:27.663Z,87.16
2022-10-09T04:27:27.645Z,87.06
2022-10-09T04:28:27.681Z,86.96
2022-10-09T04:29:27.632Z,86.96
2022-10-09T04:30:27.614Z,86.75
2022-10-09T04:31:27.729Z,86.75
2022-10-09T04:32:27.583Z,86.85
2022-10-09T04:33:27.582Z,86.79
2022-10-09T04:34:27.560Z,86.89
2022-10-09T04:35:27.582Z,86.79
2022-10-09T04:36:27.539Z,86.68
2022-10-09T04:37:27.552Z,86.79
2022-10-09T04:38:27.513Z,86.89
2022-10-09T04:39:27.534Z,86.79
2022-10-09T04:40:27.509Z,86.79
2022-10-09T04:41:27.495Z,86.79
2022-10-09T04:42:27.475Z,86.68
2022-10-09T04:43:27.493Z,86.93
2022-10-09T04:44:27.465Z,87.04
2022-10-09T04:45:27.479Z,87.14
2022-10-09T04:46:27.436Z,87.04
2022-10-09T04:47:27.435Z,87.24
2022-10-09T04:48:27.424Z,87.24
2022-10-09T04:49:27.402Z,87.14
2022-10-09T04:50:27.387Z,87.24
2022-10-09T04:51:27.398Z,87.24
2022-10-09T04:52:27.373Z,87.24
2022-10-09T04:53:27.371Z,87.24
2022-10-09T04:54:27.360Z,87.35
2022-10-09T04:55:27.338Z,87.24
2022-10-09T04:56:27.340Z,87.14
2022-10-09T04:57:27.323Z,87.04
2022-10-09T04:58:27.322Z,86.93
2022-10-09T04:59:27.316Z,86.93
2022-10-09T05:00:27.297Z,87.04
2022-10-09T05:01:27.339Z,87.24
2022-10-09T05:02:27.349Z,87.35
2022-10-09T05:03:27.255Z,87.35
2022-10-09T05:04:27.242Z,87.35
2022-10-09T05:05:27.234Z,87.45
2022-10-09T05:06:27.232Z,87.35
2022-10-09T05:07:27.234Z,87.35
2022-10-09T05:08:27.209Z,87.55
2022-10-09T05:09:27.192Z,87.55
2022-10-09T05:10:27.184Z,87.45
2022-10-09T05:11:27.199Z,87.35
2022-10-09T05:12:27.189Z,87.24
2022-10-09T05:13:27.170Z,87.35
2022-10-09T05:14:27.148Z,87.35
2022-10-09T05:15:27.138Z,87.35
2022-10-09T05:16:27.327Z,87.24
2022-10-09T05:17:27.146Z,87.24
2022-10-09T05:18:27.108Z,87.04
2022-10-09T05:19:27.099Z,87.04
2022-10-09T05:20:27.080Z,87.04
2022-10-09T05:21:27.069Z,87.14
2022-10-09T05:22:27.077Z,87.35
2022-10-09T05:23:27.038Z,87.35
2022-10-09T05:24:27.036Z,87.24
2022-10-09T05:25:27.039Z,87.14
2022-10-09T05:26:27.067Z,87.14
2022-10-09T05:27:27.027Z,87.35
2022-10-09T05:28:27.067Z,87.35
2022-10-09T05:29:27.006Z,87.24
2022-10-09T05:30:26.996Z,87.35
2022-10-09T05:31:27.046Z,87.45
2022-10-09T05:32:26.970Z,87.24
2022-10-09T05:33:26.936Z,87.14
2022-10-09T05:34:26.935Z,87.24
2022-10-09T05:35:26.974Z,87.35
2022-10-09T05:36:26.921Z,87.45
2022-10-09T05:37:26.912Z,87.35
2022-10-09T05:38:26.915Z,87.24
2022-10-09T05:39:26.870Z,87.24
2022-10-09T05:40:29.191Z,87.14
2022-10-09T05:41:26.850Z,87.04
2022-10-09T05:42:26.857Z,86.93
2022-10-09T05:43:26.848Z,86.93
2022-10-09T05:44:26.828Z,86.62
2022-10-09T05:45:26.948Z,86.62
2022-10-09T05:46:26.852Z,86.62
2022-10-09T05:47:26.959Z,86.62
2022-10-09T05:48:26.794Z,86.83
2022-10-09T05:49:26.772Z,87.14
2022-10-09T05:50:26.757Z,87.14
2022-10-09T05:51:26.762Z,87.35
2022-10-09T05:52:26.764Z,87.55
2022-10-09T05:53:26.736Z,87.76
2022-10-09T05:54:26.719Z,87.76
2022-10-09T05:55:26.711Z,87.66
2022-10-09T05:56:26.718Z,87.66
2022-10-09T05:57:26.704Z,87.76
2022-10-09T05:58:26.704Z,87.82
2022-10-09T05:59:26.659Z,87.93
2022-10-09T06:00:26.717Z,87.93
2022-10-09T06:01:26.855Z,87.82
2022-10-09T06:02:26.732Z,87.82
2022-10-09T06:03:26.642Z,87.72
2022-10-09T06:04:26.614Z,87.57
2022-10-09T06:05:26.600Z,87.47
2022-10-09T06:06:26.613Z,87.68
2022-10-09T06:07:26.597Z,87.99
2022-10-09T06:08:26.571Z,88.09
2022-10-09T06:09:26.564Z,87.88
2022-10-09T06:10:31.452Z,87.78
2022-10-09T06:11:27.563Z,87.93
2022-10-09T06:12:26.545Z,88.45
2022-10-09T06:13:26.532Z,88.79
2022-10-09T06:14:26.508Z,89.52
2022-10-09T06:15:26.518Z,90.04
2022-10-09T06:16:26.563Z,89.94
2022-10-09T06:17:26.471Z,89.42
2022-10-09T06:18:26.461Z,89.00
2022-10-09T06:19:26.499Z,89.07
2022-10-09T06:20:26.460Z,89.07
2022-10-09T06:21:26.456Z,88.86
2022-10-09T06:22:26.438Z,88.45
2022-10-09T06:23:26.419Z,88.13
2022-10-09T06:24:29.033Z,88.20
2022-10-09T06:25:26.385Z,88.40
2022-10-09T06:26:26.420Z,88.40
2022-10-09T06:27:26.401Z,88.55
2022-10-09T06:28:26.373Z,88.96
2022-10-09T06:29:26.343Z,89.23
2022-10-09T06:30:26.467Z,89.34
2022-10-09T06:31:26.482Z,89.44
2022-10-09T06:32:26.331Z,89.13
2022-10-09T06:33:26.303Z,89.13
2022-10-09T06:34:26.298Z,89.34
2022-10-09T06:35:26.302Z,89.34
2022-10-09T06:36:26.332Z,89.23
2022-10-09T06:37:26.275Z,89.23
2022-10-09T06:38:26.266Z,89.54
2022-10-09T06:39:26.244Z,89.86
2022-10-09T06:40:26.264Z,90.12
2022-10-09T06:41:26.234Z,90.44
2022-10-09T06:42:26.211Z,90.53
2022-10-09T06:43:26.197Z,90.74
2022-10-09T06:44:26.186Z,90.84
2022-10-09T06:45:26.180Z,90.91
2022-10-09T06:46:27.199Z,90.91
2022-10-09T06:47:26.144Z,91.11
2022-10-09T06:48:26.136Z,91.11
2022-10-09T06:49:26.131Z,91.11
2022-10-09T06:50:26.129Z,91.22
2022-10-09T06:51:26.131Z,91.22
2022-10-09T06:52:26.110Z,91.32
2022-10-09T06:53:26.102Z,91.32
2022-10-09T06:54:26.081Z,91.53
2022-10-09T06:55:28.747Z,91.74
2022-10-09T06:56:26.090Z,92.05
2022-10-09T06:57:26.041Z,92.11
2022-10-09T06:58:26.044Z,92.11
2022-10-09T06:59:26.029Z,92.11
2022-10-09T07:00:26.079Z,92.00
2022-10-09T07:01:26.038Z,91.90
2022-10-09T07:02:26.032Z,92.00
2022-10-09T07:03:25.988Z,92.11
2022-10-09T07:04:25.974Z,92.32
2022-10-09T07:05:26.003Z,92.42
2022-10-09T07:06:25.981Z,92.42
2022-10-09T07:07:25.949Z,92.32
2022-10-09T07:08:25.954Z,92.11
2022-10-09T07:09:25.922Z,91.96
2022-10-09T07:10:25.936Z,91.96
2022-10-09T07:11:25.891Z,91.96
2022-10-09T07:12:25.907Z,92.07
2022-10-09T07:13:25.879Z,91.86
2022-10-09T07:14:25.872Z,91.75
2022-10-09T07:15:25.891Z,91.65
2022-10-09T07:16:25.933Z,91.65
2022-10-09T07:17:25.861Z,91.65
2022-10-09T07:18:25.837Z,91.75
2022-10-09T07:19:25.814Z,91.65
2022-10-09T07:20:25.869Z,91.65
2022-10-09T07:21:25.808Z,91.65
2022-10-09T07:22:27.084Z,91.75
2022-10-09T07:23:25.777Z,91.75
2022-10-09T07:24:25.779Z,91.55
2022-10-09T07:25:25.746Z,91.44
2022-10-09T07:26:25.759Z,91.80
2022-10-09T07:27:25.745Z,92.63
2022-10-09T07:28:25.764Z,93.24
2022-10-09T07:29:26.656Z,93.35
2022-10-09T07:30:25.798Z,93.45
2022-10-09T07:31:25.781Z,93.51
2022-10-09T07:32:25.686Z,93.20
2022-10-09T07:33:25.669Z,92.89
2022-10-09T07:34:25.678Z,92.68
2022-10-09T07:35:25.647Z,92.58
2022-10-09T07:36:25.638Z,92.68
2022-10-09T07:37:25.620Z,92.64
2022-10-09T07:38:26.568Z,92.38
2022-10-09T07:39:25.606Z,92.48
2022-10-09T07:40:25.659Z,92.79
2022-10-09T07:41:25.594Z,93.10
2022-10-09T07:42:25.570Z,93.41
2022-10-09T07:43:25.548Z,93.26
2022-10-09T07:44:25.573Z,93.16
2022-10-09T07:45:25.538Z,93.05
2022-10-09T07:46:27.663Z,93.16
2022-10-09T07:47:26.519Z,93.05
2022-10-09T07:48:25.522Z,92.80
2022-10-09T07:49:25.509Z,92.23
2022-10-09T07:50:25.518Z,92.44
2022-10-09T07:51:25.470Z,92.74
2022-10-09T07:52:25.471Z,92.60
2022-10-09T07:53:25.448Z,92.19
2022-10-09T07:54:25.445Z,92.29
2022-10-09T07:55:25.449Z,92.40
2022-10-09T07:56:25.435Z,92.29
2022-10-09T07:57:25.414Z,92.19
2022-10-09T07:58:25.410Z,91.98
2022-10-09T07:59:25.384Z,92.04
2022-10-09T08:00:25.476Z,91.94
2022-10-09T08:01:25.411Z,91.22
2022-10-09T08:02:25.439Z,91.05
2022-10-09T08:03:25.346Z,91.46
2022-10-09T08:04:25.355Z,91.63
2022-10-09T08:05:25.313Z,91.73
2022-10-09T08:06:25.332Z,91.83
2022-10-09T08:07:25.308Z,91.94
2022-10-09T08:08:25.293Z,91.73
2022-10-09T08:09:25.329Z,91.58
2022-10-09T08:10:25.270Z,91.48
2022-10-09T08:11:25.276Z,91.28
2022-10-09T08:12:25.268Z,91.17
2022-10-09T08:13:25.246Z,90.92
2022-10-09T08:14:25.237Z,90.82
2022-10-09T08:15:25.381Z,90.72
2022-10-09T08:16:25.218Z,90.72
2022-10-09T08:17:25.209Z,90.72
2022-10-09T08:18:25.187Z,90.47
2022-10-09T08:19:26.151Z,90.37
2022-10-09T08:20:25.183Z,90.16
2022-10-09T08:21:25.148Z,89.85
2022-10-09T08:22:25.164Z,89.54
2022-10-09T08:23:25.131Z,89.44
2022-10-09T08:24:25.129Z,89.54
2022-10-09T08:25:25.107Z,89.65
2022-10-09T08:26:25.102Z,89.65
2022-10-09T08:27:25.105Z,89.85
2022-10-09T08:28:25.146Z,89.85
2022-10-09T08:29:25.083Z,89.91
2022-10-09T08:30:25.079Z,89.81
2022-10-09T08:31:25.256Z,89.61
2022-10-09T08:32:25.032Z,89.50
2022-10-09T08:33:25.040Z,89.29
2022-10-09T08:34:25.008Z,89.40
2022-10-09T08:35:24.999Z,89.81
2022-10-09T08:36:25.003Z,90.33
2022-10-09T08:37:24.974Z,90.64
2022-10-09T08:38:46.202Z,90.78
2022-10-09T08:39:26.007Z,90.94
2022-10-09T08:40:25.902Z,90.73
2022-10-09T08:41:24.941Z,90.64
2022-10-09T08:42:24.926Z,90.53
2022-10-09T08:43:24.916Z,90.33
2022-10-09T08:44:24.927Z,90.18
2022-10-09T08:45:24.897Z,89.97
2022-10-09T08:46:24.944Z,89.77
2022-10-09T08:47:24.869Z,89.42
2022-10-09T08:48:24.874Z,89.01
2022-10-09T08:49:24.868Z,88.80
2022-10-09T08:50:24.837Z,89.28
2022-10-09T08:51:24.837Z,89.17
2022-10-09T08:52:24.818Z,88.96
2022-10-09T08:53:24.807Z,88.82
2022-10-09T08:54:24.819Z,89.03
2022-10-09T08:55:24.801Z,88.92
2022-10-09T08:56:24.799Z,89.13
2022-10-09T08:57:24.787Z,88.00
2022-10-09T08:58:24.763Z,87.34
2022-10-09T08:59:24.762Z,86.93
2022-10-09T09:00:24.741Z,87.34
2022-10-09T09:01:25.452Z,87.04
2022-10-09T09:02:24.789Z,86.72
2022-10-09T09:03:24.710Z,86.58
2022-10-09T09:04:24.724Z,86.58
2022-10-09T09:05:24.767Z,86.48
2022-10-09T09:06:24.665Z,86.79
2022-10-09T09:07:24.684Z,86.54
2022-10-09T09:08:24.649Z,86.13
2022-10-09T09:09:25.617Z,86.03
2022-10-09T09:10:24.683Z,86.13
2022-10-09T09:11:24.630Z,86.03
2022-10-09T09:12:24.602Z,85.78
2022-10-09T09:13:24.616Z,85.47
2022-10-09T09:14:24.612Z,85.27
2022-10-09T09:15:25.539Z,85.27
2022-10-09T09:16:24.631Z,85.06
2022-10-09T09:17:24.547Z,85.13
2022-10-09T09:18:24.547Z,85.03
2022-10-09T09:19:24.544Z,84.82
2022-10-09T09:20:24.516Z,85.54
2022-10-09T09:21:24.509Z,85.33
2022-10-09T09:22:24.495Z,84.58
2022-10-09T09:23:24.495Z,84.68
2022-10-09T09:24:24.498Z,85.09
2022-10-09T09:25:24.461Z,85.19
2022-10-09T09:26:24.462Z,85.09
2022-10-09T09:27:24.451Z,84.74
2022-10-09T09:28:24.463Z,84.84
2022-10-09T09:29:24.446Z,85.25
2022-10-09T09:30:24.404Z,85.46
2022-10-09T09:31:24.481Z,87.20
2022-10-09T09:32:24.403Z,86.14
2022-10-09T09:33:24.382Z,84.80
2022-10-09T09:34:24.385Z,84.09
2022-10-09T09:35:24.399Z,83.98
2022-10-09T09:36:24.367Z,83.98
2022-10-09T09:37:25.290Z,83.78
2022-10-09T09:38:24.324Z,83.68
2022-10-09T09:40:23.807Z,83.33
2022-10-09T09:40:44.333Z,83.03
2022-10-09T09:41:25.313Z,82.82
2022-10-09T09:42:24.275Z,82.62
2022-10-09T09:43:24.276Z,82.89
2022-10-09T09:44:24.269Z,83.50
2022-10-09T09:45:24.249Z,83.50
2022-10-09T09:46:24.339Z,83.25
2022-10-09T09:47:24.253Z,83.46
2022-10-09T09:48:24.225Z,83.36
2022-10-09T09:49:25.156Z,83.25
2022-10-09T09:50:46.054Z,84.24
2022-10-09T09:51:29.420Z,82.81
2022-10-09T09:52:24.178Z,82.20
2022-10-09T09:53:24.177Z,82.20
2022-10-09T09:54:24.149Z,82.05
2022-10-09T09:55:24.140Z,81.85
2022-10-09T09:56:24.137Z,81.65
2022-10-09T09:57:24.125Z,81.13
2022-10-09T09:58:24.128Z,80.89
2022-10-09T09:59:24.096Z,81.10
2022-10-09T10:00:24.079Z,80.58
2022-10-09T10:01:24.152Z,80.28
2022-10-09T10:02:24.220Z,79.97
2022-10-09T10:03:24.054Z,80.18
2022-10-09T10:04:24.041Z,80.65
2022-10-09T10:05:24.029Z,80.55
2022-10-09T10:06:24.045Z,80.75
2022-10-09T10:07:24.033Z,80.85
2022-10-09T10:08:24.016Z,81.16
2022-10-09T10:09:24.000Z,80.82
2022-10-09T10:10:25.614Z,80.61
2022-10-09T10:11:23.991Z,80.82
2022-10-09T10:12:23.962Z,80.61
2022-10-09T10:13:23.953Z,80.27
2022-10-09T10:14:23.944Z,80.57
2022-10-09T10:15:23.925Z,80.57
2022-10-09T10:16:23.944Z,80.68
2022-10-09T10:17:23.905Z,80.88
2022-10-09T10:18:23.909Z,80.88
2022-10-09T10:19:23.874Z,80.47
2022-10-09T10:20:23.869Z,80.16
2022-10-09T10:21:23.863Z,80.16
2022-10-09T10:22:23.854Z,80.68
2022-10-09T10:23:23.857Z,80.54
2022-10-09T10:24:23.823Z,80.64
2022-10-09T10:25:23.823Z,80.23
2022-10-09T10:26:23.816Z,80.23
2022-10-09T10:27:23.803Z,79.93
2022-10-09T10:28:23.841Z,79.72
2022-10-09T10:29:23.774Z,80.09
2022-10-09T10:30:23.781Z,80.09
2022-10-09T10:31:23.835Z,79.89
2022-10-09T10:32:23.747Z,80.40
2022-10-09T10:33:23.763Z,79.89
2022-10-09T10:34:23.729Z,79.85
2022-10-09T10:35:23.730Z,78.12
2022-10-09T10:36:23.693Z,77.61
2022-10-09T10:37:23.689Z,77.30
2022-10-09T10:38:23.660Z,77.51
2022-10-09T10:39:23.662Z,77.91
2022-10-09T10:40:23.679Z,78.19
2022-10-09T10:41:23.641Z,78.28
2022-10-09T10:42:23.641Z,77.57
2022-10-09T10:43:23.634Z,76.86
2022-10-09T10:44:23.634Z,76.15
2022-10-09T10:45:23.617Z,75.54
2022-10-09T10:46:23.788Z,74.62
2022-10-09T10:47:23.871Z,73.36
2022-10-09T10:48:23.569Z,72.65
2022-10-09T10:49:23.557Z,72.45
2022-10-09T10:50:23.544Z,72.45
2022-10-09T10:51:23.562Z,72.25
2022-10-09T10:52:23.526Z,71.60
2022-10-09T10:53:23.522Z,71.19
2022-10-09T10:54:23.499Z,70.25
2022-10-09T10:55:23.530Z,70.35
2022-10-09T10:56:23.489Z,70.14
2022-10-09T10:57:23.489Z,70.35
2022-10-09T10:58:23.468Z,70.25
2022-10-09T10:59:23.448Z,69.94
2022-10-09T11:00:23.442Z,69.84
2022-10-09T11:01:23.551Z,69.40
2022-10-09T11:02:24.389Z,69.43
2022-10-09T11:03:23.576Z,69.60
2022-10-09T11:04:23.402Z,69.70
2022-10-09T11:05:23.393Z,70.01
2022-10-09T11:06:23.397Z,69.91
2022-10-09T11:07:23.362Z,69.91
2022-10-09T11:08:23.359Z,69.17
2022-10-09T11:09:23.340Z,69.17
2022-10-09T11:10:23.334Z,69.17
2022-10-09T11:11:23.344Z,68.25
2022-10-09T11:12:43.384Z,67.64
2022-10-09T11:13:24.298Z,67.84
2022-10-09T11:14:23.286Z,68.55
2022-10-09T11:15:23.294Z,68.35
2022-10-09T11:16:23.314Z,68.76
2022-10-09T11:17:23.282Z,68.76
2022-10-09T11:18:23.249Z,68.15
2022-10-09T11:19:23.260Z,67.61
2022-10-09T11:20:23.219Z,67.61
2022-10-09T11:21:23.205Z,66.83
2022-10-09T11:22:23.205Z,66.83
2022-10-09T11:23:23.218Z,67.13
2022-10-09T11:24:23.169Z,67.33
2022-10-09T11:25:23.167Z,67.33
2022-10-09T11:26:23.173Z,67.54
2022-10-09T11:27:23.175Z,67.20
2022-10-09T11:28:23.212Z,67.20
2022-10-09T11:29:23.130Z,67.50
2022-10-09T11:30:23.112Z,67.30
2022-10-09T11:31:23.184Z,67.30
2022-10-09T11:32:23.091Z,66.90
2022-10-09T11:33:23.081Z,66.19
2022-10-09T11:34:23.082Z,65.88
2022-10-09T11:35:23.069Z,66.39
2022-10-09T11:36:23.060Z,66.29
2022-10-09T11:37:23.042Z,66.29
2022-10-09T11:38:23.027Z,65.99
2022-10-09T11:39:23.997Z,65.85
2022-10-09T11:40:23.053Z,65.14
2022-10-09T11:41:23.002Z,64.94
2022-10-09T11:42:22.991Z,65.14
2022-10-09T11:43:23.016Z,65.04
2022-10-09T11:44:22.972Z,64.43
2022-10-09T11:45:23.078Z,64.03
2022-10-09T11:46:22.944Z,63.69
2022-10-09T11:47:22.952Z,63.69
2022-10-09T11:48:22.923Z,63.79
2022-10-09T11:49:22.908Z,63.29
2022-10-09T11:50:22.902Z,63.89
2022-10-09T11:51:22.928Z,64.10
2022-10-09T11:52:22.875Z,63.89
2022-10-09T11:53:22.888Z,64.00
2022-10-09T11:54:22.850Z,64.70
2022-10-09T11:55:23.797Z,64.70
2022-10-09T11:56:22.855Z,63.79
2022-10-09T11:57:22.830Z,63.49
2022-10-09T11:58:22.835Z,63.89
2022-10-09T11:59:22.841Z,64.20
2022-10-09T12:00:22.790Z,63.06
2022-10-09T12:01:22.828Z,62.95
2022-10-09T12:02:23.119Z,62.34
2022-10-09T12:03:22.784Z,62.65
2022-10-09T12:04:32.443Z,62.24
2022-10-09T12:05:23.752Z,62.65
2022-10-09T12:06:22.728Z,62.14
2022-10-09T12:07:22.742Z,63.66
2022-10-09T12:08:22.713Z,62.34
2022-10-09T12:09:22.705Z,61.91
2022-10-09T12:10:22.711Z,62.41
2022-10-09T12:11:22.672Z,61.63
2022-10-09T12:12:22.690Z,61.43
2022-10-09T12:13:22.667Z,60.82
2022-10-09T12:14:22.654Z,60.52
2022-10-09T12:15:22.638Z,60.31
2022-10-09T12:16:22.690Z,60.93
2022-10-09T12:17:22.625Z,61.63
2022-10-09T12:18:22.591Z,61.53
2022-10-09T12:19:22.623Z,61.02
2022-10-09T12:20:22.570Z,60.82
2022-10-09T12:21:22.571Z,60.49
2022-10-09T12:22:22.550Z,60.39
2022-10-09T12:23:26.720Z,60.59
2022-10-09T12:24:22.540Z,61.10
2022-10-09T12:25:22.574Z,61.20
2022-10-09T12:26:22.517Z,60.79
2022-10-09T12:27:22.508Z,61.10
2022-10-09T12:28:22.617Z,61.10
2022-10-09T12:29:22.501Z,60.28
2022-10-09T12:30:22.504Z,60.69
2022-10-09T12:31:22.584Z,60.28
2022-10-09T12:32:22.450Z,60.49
2022-10-09T12:33:22.449Z,60.08
2022-10-09T12:34:22.420Z,59.99
2022-10-09T12:35:22.441Z,59.25
2022-10-09T12:36:22.392Z,58.94
2022-10-09T12:37:22.391Z,59.34
2022-10-09T12:38:22.396Z,59.55
2022-10-09T12:39:22.374Z,59.95
2022-10-09T12:40:22.385Z,59.95
2022-10-09T12:41:22.392Z,60.06
2022-10-09T12:42:22.440Z,59.85
2022-10-09T12:43:22.330Z,59.75
2022-10-09T12:44:22.338Z,59.25
2022-10-09T12:45:23.262Z,59.55
2022-10-09T12:46:22.365Z,59.65
2022-10-09T12:47:22.282Z,59.25
2022-10-09T12:48:22.267Z,59.34
2022-10-09T12:49:22.267Z,59.65
2022-10-09T12:50:22.255Z,59.05
2022-10-09T12:51:22.259Z,58.74
2022-10-09T12:52:22.228Z,58.31
2022-10-09T12:53:22.217Z,57.80
2022-10-09T12:54:22.217Z,57.70